Foam Lake, Canada
Current Conditions -  °F | °C
As of 7:22 PM on Thursday 18 Dec 2014 (Local Time) from CYQV Reporting Station
Overcast Overcast  
Wind Chill:   Ceiling: 700
Heat Index: 18°   Visibility: 9mi
Dew Point: 14°   Wind: 9mph
Humidity: 86%   Direction: 140°SE
Pressure: 29.95"   Gusts: NA
Location:  51.65°N, 103.53°W
Report Text: CYQV 190122Z AUTO 14008KT 9SM OVC007 M08/M10 A2995 RMK SLP179
Loading
Personal Weather Stations






























Interactive Weather Map New forecast layout! Learn more

10-Day Weather Forecast

Advertisements
Track Severe Weather on mobile